createdAt,value
2022-08-07T00:00:34.716Z,3.83
2022-08-07T00:04:36.689Z,4.32
2022-08-07T00:08:44.455Z,4.68
2022-08-07T00:12:59.853Z,4.95
2022-08-07T00:17:03.187Z,3.83
2022-08-07T00:21:07.994Z,3.97
2022-08-07T00:25:37.541Z,3.53
2022-08-07T00:29:44.017Z,4.00
2022-08-07T00:33:47.728Z,3.60
2022-08-07T00:37:49.901Z,3.53
2022-08-07T00:42:01.948Z,3.40
2022-08-07T00:46:08.003Z,2.95
2022-08-07T00:50:21.217Z,3.03
2022-08-07T00:54:32.673Z,2.50
2022-08-07T00:58:34.861Z,2.50
2022-08-07T01:02:36.963Z,2.92
2022-08-07T01:06:41.650Z,2.70
2022-08-07T01:10:54.320Z,2.50
2022-08-07T01:15:01.635Z,3.00
2022-08-07T01:19:14.881Z,2.78
2022-08-07T01:23:25.468Z,2.90
2022-08-07T01:27:41.045Z,2.75
2022-08-07T01:31:53.552Z,2.20
2022-08-07T01:36:06.377Z,2.97
2022-08-07T01:40:15.409Z,2.67
2022-08-07T01:44:17.887Z,2.53
2022-08-07T01:48:29.596Z,2.80
2022-08-07T01:52:34.624Z,2.75
2022-08-07T01:57:05.709Z,2.40
2022-08-07T02:01:58.732Z,2.45
2022-08-07T02:05:53.608Z,2.90
2022-08-07T02:10:02.014Z,3.30
2022-08-07T02:14:07.364Z,3.20
2022-08-07T02:18:14.265Z,3.35
2022-08-07T02:22:21.569Z,3.70
2022-08-07T02:26:33.149Z,3.80
2022-08-07T02:30:38.743Z,3.92
2022-08-07T02:34:51.060Z,4.28
2022-08-07T02:38:57.112Z,3.47
2022-08-07T02:43:01.757Z,4.00
2022-08-07T02:47:19.819Z,3.45
2022-08-07T02:51:42.009Z,3.78
2022-08-07T02:56:03.388Z,3.38
2022-08-07T03:00:11.152Z,3.72
2022-08-07T03:04:15.776Z,3.80
2022-08-07T03:08:18.880Z,4.00
2022-08-07T03:12:30.875Z,3.50
2022-08-07T03:16:38.427Z,3.80
2022-08-07T03:20:40.913Z,3.55
2022-08-07T03:24:43.844Z,4.07
2022-08-07T03:28:48.371Z,3.08
2022-08-07T03:37:12.316Z,3.75
2022-08-07T03:41:15.265Z,3.53
2022-08-07T03:45:29.421Z,4.22
2022-08-07T03:49:33.944Z,3.92
2022-08-07T03:54:01.967Z,4.85
2022-08-07T03:58:34.194Z,4.22
2022-08-07T04:02:23.116Z,4.93
2022-08-07T04:06:37.577Z,5.20
2022-08-07T04:10:42.343Z,5.45
2022-08-07T04:14:47.562Z,5.03
2022-08-07T04:18:59.110Z,4.90
2022-08-07T04:23:06.203Z,4.78
2022-08-07T04:27:15.212Z,4.60
2022-08-07T04:31:38.864Z,4.25
2022-08-07T04:35:51.201Z,4.43
2022-08-07T04:39:55.109Z,5.13
2022-08-07T04:44:14.601Z,5.13
2022-08-07T04:49:17.908Z,5.25
2022-08-07T04:54:05.805Z,5.43
2022-08-07T04:58:29.129Z,6.75
2022-08-07T05:02:39.189Z,6.03
2022-08-07T05:07:09.648Z,5.70
2022-08-07T05:11:57.495Z,5.05
2022-08-07T05:15:53.710Z,4.50
2022-08-07T05:19:57.450Z,4.28
2022-08-07T05:24:08.445Z,3.50
2022-08-07T05:28:20.559Z,3.70
2022-08-07T05:32:26.502Z,3.40
2022-08-07T05:36:30.207Z,3.85
2022-08-07T05:40:34.433Z,3.10
2022-08-07T05:44:41.595Z,3.85
2022-08-07T05:48:58.258Z,4.18
2022-08-07T05:53:04.946Z,5.50
2022-08-07T05:57:07.847Z,4.63
2022-08-07T06:01:12.112Z,4.57
2022-08-07T06:05:15.734Z,4.07
2022-08-07T06:09:18.656Z,4.70
2022-08-07T06:14:11.595Z,3.95
2022-08-07T06:17:53.846Z,4.72
2022-08-07T06:22:11.904Z,4.47
2022-08-07T06:26:20.812Z,4.28
2022-08-07T06:30:35.132Z,3.58
2022-08-07T06:34:40.677Z,3.22
2022-08-07T06:38:58.703Z,2.75
2022-08-07T06:43:21.691Z,2.72
2022-08-07T06:47:24.980Z,2.92
2022-08-07T06:51:33.932Z,2.42
2022-08-07T06:55:53.465Z,2.33
2022-08-07T07:00:12.087Z,2.80
2022-08-07T07:04:32.314Z,2.53
2022-08-07T07:08:36.085Z,2.55
2022-08-07T07:12:55.796Z,2.10
2022-08-07T07:17:03.256Z,2.60
2022-08-07T07:21:19.952Z,2.00
2022-08-07T07:26:33.837Z,2.17
2022-08-07T07:30:08.891Z,2.03
2022-08-07T07:34:16.954Z,2.00
2022-08-07T07:38:25.985Z,1.48
2022-08-07T07:42:32.970Z,1.83
2022-08-07T07:46:55.329Z,1.90
2022-08-07T07:51:00.710Z,1.83
2022-08-07T07:55:05.985Z,1.67
2022-08-07T07:59:09.357Z,1.17
2022-08-07T08:03:16.942Z,1.30
2022-08-07T08:07:42.361Z,0.85
2022-08-07T08:12:02.931Z,0.90
2022-08-07T08:16:08.554Z,0.60
2022-08-07T08:20:22.281Z,0.80
2022-08-07T08:24:47.937Z,0.70
2022-08-07T08:29:01.308Z,0.75
2022-08-07T08:33:15.113Z,0.80
2022-08-07T08:37:53.957Z,0.82
2022-08-07T08:41:59.515Z,0.98
2022-08-07T08:46:20.351Z,0.95
2022-08-07T08:50:34.711Z,0.90
2022-08-07T08:55:54.914Z,0.57
2022-08-07T09:00:02.134Z,0.70
2022-08-07T09:04:45.381Z,0.65
2022-08-07T09:09:23.820Z,0.60
2022-08-07T09:14:13.164Z,0.60
2022-08-07T09:18:30.852Z,0.70
2022-08-07T09:24:31.771Z,0.63
2022-08-07T09:27:59.508Z,0.57
2022-08-07T09:32:26.555Z,0.80
2022-08-07T09:36:37.019Z,0.55
2022-08-07T09:41:00.844Z,0.73
2022-08-07T09:47:52.127Z,0.70
2022-08-07T09:50:19.182Z,0.70
2022-08-07T09:54:40.634Z,0.80
2022-08-07T09:59:14.957Z,1.00
2022-08-07T10:04:03.642Z,1.20
2022-08-07T10:08:15.290Z,0.88
2022-08-07T10:12:52.948Z,1.40
2022-08-07T10:18:01.118Z,1.20
2022-08-07T10:22:33.785Z,1.42
2022-08-07T10:27:18.139Z,2.10
2022-08-07T10:31:45.311Z,1.50
2022-08-07T10:36:05.515Z,1.23
2022-08-07T10:40:30.274Z,1.42
2022-08-07T10:44:48.138Z,1.50
2022-08-07T10:49:49.289Z,1.35
2022-08-07T10:54:30.434Z,1.75
2022-08-07T10:58:59.579Z,1.73
2022-08-07T11:03:37.619Z,1.60
2022-08-07T11:08:29.205Z,1.77
2022-08-07T11:12:38.669Z,1.63
2022-08-07T11:16:56.790Z,1.85
2022-08-07T11:21:14.226Z,1.55
2022-08-07T11:25:42.591Z,1.50
2022-08-07T11:30:17.992Z,1.75
2022-08-07T11:34:59.720Z,1.50
2022-08-07T11:39:04.752Z,1.23
2022-08-07T11:43:29.624Z,1.38
2022-08-07T11:48:13.786Z,1.30
2022-08-07T11:53:10.123Z,1.40
2022-08-07T11:57:59.479Z,1.40
2022-08-07T12:02:17.812Z,1.55
2022-08-07T12:06:51.513Z,1.50
2022-08-07T12:11:20.702Z,1.50
2022-08-07T12:16:05.645Z,1.63
2022-08-07T12:20:12.909Z,1.60
2022-08-07T12:25:07.808Z,1.65
2022-08-07T12:29:16.623Z,2.00
2022-08-07T12:33:31.021Z,2.10
2022-08-07T12:38:09.581Z,2.15
2022-08-07T12:42:15.970Z,2.08
2022-08-07T12:46:37.007Z,2.30
2022-08-07T12:51:01.072Z,2.13
2022-08-07T12:55:40.462Z,2.40
2022-08-07T12:59:55.383Z,2.50
2022-08-07T13:04:04.858Z,2.60
2022-08-07T13:08:26.540Z,2.58
2022-08-07T13:12:36.359Z,2.40
2022-08-07T13:16:46.633Z,2.45
2022-08-07T13:20:56.477Z,2.85
2022-08-07T13:25:06.003Z,2.65
2022-08-07T13:29:16.977Z,3.03
2022-08-07T13:34:30.668Z,2.97
2022-08-07T13:38:13.868Z,3.13
2022-08-07T13:42:19.152Z,3.00
2022-08-07T13:46:33.476Z,3.00
2022-08-07T13:50:45.171Z,3.22
2022-08-07T13:55:13.174Z,3.00
2022-08-07T13:59:27.151Z,3.03
2022-08-07T14:04:05.237Z,3.08
2022-08-07T14:08:01.470Z,2.90
2022-08-07T14:12:07.329Z,2.92
2022-08-07T14:16:16.127Z,2.97
2022-08-07T14:20:42.554Z,3.30
2022-08-07T14:28:57.136Z,3.10
2022-08-07T14:33:05.289Z,2.85
2022-08-07T14:37:16.389Z,2.72
2022-08-07T14:41:34.114Z,2.85
2022-08-07T14:45:54.542Z,2.92
2022-08-07T14:49:59.485Z,2.80
2022-08-07T14:58:28.068Z,3.00
2022-08-07T15:02:34.477Z,3.10
2022-08-07T15:06:40.026Z,2.85
2022-08-07T15:11:04.206Z,3.03
2022-08-07T15:15:17.419Z,3.35
2022-08-07T15:20:31.650Z,2.93
2022-08-07T15:25:15.013Z,3.40
2022-08-07T15:28:31.227Z,3.55
2022-08-07T15:33:01.189Z,3.10
2022-08-07T15:42:44.756Z,3.13
2022-08-07T15:46:00.713Z,3.10
2022-08-07T15:50:11.668Z,2.90
2022-08-07T15:54:40.793Z,3.20
2022-08-07T15:58:59.973Z,3.13
2022-08-07T16:03:06.719Z,3.03
2022-08-07T16:08:28.983Z,3.05
2022-08-07T16:12:12.268Z,3.10
2022-08-07T16:16:49.694Z,3.10
2022-08-07T16:21:43.945Z,3.10
2022-08-07T16:25:56.616Z,3.15
2022-08-07T16:30:30.277Z,3.30
2022-08-07T16:34:52.263Z,2.83
2022-08-07T16:39:16.747Z,3.28
2022-08-07T16:44:05.941Z,2.92
2022-08-07T16:48:29.967Z,3.53
2022-08-07T16:53:55.423Z,3.22
2022-08-07T16:58:04.081Z,3.10
2022-08-07T17:02:51.717Z,3.00
2022-08-07T17:07:08.691Z,3.08
2022-08-07T17:11:16.921Z,2.90
2022-08-07T17:15:44.513Z,2.85
2022-08-07T17:20:00.671Z,3.63
2022-08-07T17:24:29.865Z,3.60
2022-08-07T17:28:49.842Z,3.38
2022-08-07T17:34:08.496Z,3.53
2022-08-07T17:38:05.033Z,3.20
2022-08-07T17:42:21.262Z,3.42
2022-08-07T17:46:38.017Z,3.33
2022-08-07T17:50:53.963Z,3.30
2022-08-07T17:55:04.414Z,3.50
2022-08-07T17:59:09.630Z,3.58
2022-08-07T18:03:54.176Z,3.50
2022-08-07T18:08:24.497Z,3.35
2022-08-07T18:12:42.095Z,3.53
2022-08-07T18:16:57.666Z,3.40
2022-08-07T18:21:37.188Z,3.15
2022-08-07T18:25:46.863Z,3.03
2022-08-07T18:30:06.532Z,2.75
2022-08-07T18:34:37.517Z,3.45
2022-08-07T18:39:00.266Z,3.03
2022-08-07T18:43:15.102Z,3.30
2022-08-07T18:47:37.983Z,3.17
2022-08-07T18:52:34.656Z,3.58
2022-08-07T18:57:23.556Z,3.53
2022-08-07T19:02:17.186Z,3.58
2022-08-07T19:06:01.998Z,3.55
2022-08-07T19:10:18.575Z,3.63
2022-08-07T19:14:42.489Z,3.00
2022-08-07T19:19:32.682Z,3.67
2022-08-07T19:23:58.712Z,3.20
2022-08-07T19:28:57.107Z,3.47
2022-08-07T19:32:34.460Z,3.47
2022-08-07T19:36:51.826Z,3.45
2022-08-07T19:40:59.859Z,3.58
2022-08-07T19:49:57.867Z,3.42
2022-08-07T19:54:31.938Z,3.55
2022-08-07T19:58:22.159Z,3.70
2022-08-07T20:02:38.963Z,3.78
2022-08-07T20:06:42.909Z,3.45
2022-08-07T20:10:55.057Z,3.88
2022-08-07T20:14:58.851Z,3.58
2022-08-07T20:19:02.579Z,3.40
2022-08-07T20:23:41.815Z,3.90
2022-08-07T20:27:46.421Z,4.20
2022-08-07T20:31:51.124Z,4.10
2022-08-07T20:36:03.225Z,3.80
2022-08-07T20:40:33.149Z,3.70
2022-08-07T20:44:33.366Z,3.70
2022-08-07T20:48:36.927Z,4.00
2022-08-07T20:52:51.080Z,3.63
2022-08-07T20:56:56.677Z,4.13
2022-08-07T21:01:19.963Z,3.88
2022-08-07T21:05:42.719Z,4.18
2022-08-07T21:09:53.245Z,3.60
2022-08-07T21:14:31.519Z,3.92
2022-08-07T21:18:34.467Z,4.32
2022-08-07T21:22:53.382Z,4.28
2022-08-07T21:27:06.835Z,4.22
2022-08-07T21:32:42.581Z,4.15
2022-08-07T21:36:11.965Z,4.25
2022-08-07T21:40:39.109Z,4.00
2022-08-07T21:44:52.639Z,4.00
2022-08-07T21:49:14.806Z,4.28
2022-08-07T21:53:31.021Z,4.03
2022-08-07T21:57:53.794Z,3.92
2022-08-07T22:02:07.036Z,3.90
2022-08-07T22:06:30.121Z,3.78
2022-08-07T22:10:35.432Z,4.00
2022-08-07T22:14:59.373Z,4.20
2022-08-07T22:19:29.540Z,4.25
2022-08-07T22:23:53.290Z,4.60
2022-08-07T22:28:29.611Z,4.43
2022-08-07T22:32:53.017Z,4.50
2022-08-07T22:37:18.474Z,5.10
2022-08-07T22:42:03.772Z,4.78
2022-08-07T22:47:03.880Z,5.80
2022-08-07T22:51:31.907Z,5.50
2022-08-07T22:55:57.725Z,5.15
2022-08-07T23:00:21.441Z,5.13
2022-08-07T23:06:06.806Z,5.18
2022-08-07T23:10:05.495Z,5.05
2022-08-07T23:14:39.535Z,5.47
2022-08-07T23:19:38.907Z,5.25
2022-08-07T23:24:04.559Z,5.22
2022-08-07T23:28:54.395Z,5.15
2022-08-07T23:34:22.241Z,5.47
2022-08-07T23:38:00.882Z,5.38
2022-08-07T23:42:26.003Z,5.45
2022-08-07T23:47:00.368Z,5.20
2022-08-07T23:53:00.187Z,5.63
2022-08-07T23:56:00.620Z,4.88
